Time;durP1;ratioP1;P1;durP2;ratioP2;P2;SDS_P1;SDS_P2;PMS_P1;PMS_P2;Temp;Humidity;BMP_temperature;BMP_pressure;BME280_temperature;BME280_humidity;BME280_pressure;Samples;Min_cycle;Max_cycle;Signal;HPM_P1;HPM_P2
2021/12/26 00:01:27;;;;;;;1999.90;999.90;;;;;;;-5.20;88.14;161021.13;5036432;28;20076;-67
2021/12/26 00:03:54;;;;;;;1999.90;999.90;;;;;;;-5.16;88.41;161032.03;5036001;28;20072;-66
2021/12/26 00:06:28;;;;;;;1999.90;999.90;;;;;;;-5.04;87.18;161063.34;5035183;28;20045;-66
2021/12/26 00:08:56;;;;;;;1999.90;999.90;;;;;;;-5.37;87.57;160976.19;5037050;28;20176;-66
2021/12/26 00:11:24;;;;;;;1999.90;999.90;;;;;;;-5.19;88.06;161023.84;5034715;28;20403;-67
2021/12/26 00:13:53;;;;;;;1999.90;999.90;;;;;;;-5.38;87.74;160973.47;5031385;28;20135;-67
2021/12/26 00:16:20;;;;;;;1999.90;999.90;;;;;;;-5.39;87.31;160970.78;5035581;28;20139;-66
2021/12/26 00:18:47;;;;;;;1999.90;999.90;;;;;;;-5.35;86.58;160980.28;5035481;28;20138;-67
2021/12/26 00:21:17;;;;;;;1999.90;999.90;;;;;;;-5.21;86.82;161017.03;5035321;28;20111;-64
2021/12/26 00:23:44;;;;;;;1999.90;999.90;;;;;;;-6.22;89.03;160751.69;5044216;28;20117;-66
2021/12/26 00:26:11;;;;;;;1999.90;999.90;;;;;;;-6.18;90.74;160759.84;5038414;28;20297;-66
2021/12/26 00:28:38;;;;;;;1999.90;999.90;;;;;;;-6.10;90.39;160783.00;5040485;28;20069;-66
2021/12/26 00:31:05;;;;;;;1999.90;999.90;;;;;;;-6.59;93.98;160653.75;5035280;28;20053;-66
2021/12/26 00:33:32;;;;;;;1999.90;999.90;;;;;;;-5.81;92.43;160857.78;5040667;28;20512;-66
2021/12/26 00:36:03;;;;;;;1999.90;999.90;;;;;;;-5.72;93.02;160883.63;5047425;28;20073;-67
2021/12/26 00:38:30;;;;;;;1999.90;999.90;;;;;;;-6.41;94.38;160700.00;5054674;28;20041;-66
2021/12/26 00:40:56;;;;;;;1999.90;999.90;;;;;;;-6.81;96.03;160595.25;5044037;28;20072;-66
2021/12/26 00:43:23;;;;;;;1999.90;999.90;;;;;;;-6.96;97.43;160554.47;5049106;28;20049;-67
2021/12/26 00:45:49;;;;;;;1999.90;999.90;;;;;;;-7.53;99.18;160404.94;5049165;28;20175;-67
2021/12/26 00:48:16;;;;;;;1999.90;999.90;;;;;;;-7.10;100.00;160519.13;5057727;28;20139;-66
2021/12/26 00:50:43;;;;;;;1999.90;999.90;;;;;;;-6.45;97.21;160690.44;5045632;28;21119;-66
2021/12/26 00:53:10;;;;;;;1999.90;999.90;;;;;;;-6.60;96.23;160649.66;5055564;28;20068;-66
2021/12/26 00:55:38;;;;;;;1999.90;999.90;;;;;;;-6.91;98.11;160568.06;5054460;28;20052;-66
2021/12/26 00:58:06;;;;;;;1999.90;999.90;;;;;;;-6.52;96.81;160670.06;5045898;28;20046;-65
2021/12/26 01:00:41;;;;;;;1999.90;999.90;;;;;;;-7.32;98.22;160460.66;5050802;28;20114;-66
2021/12/26 01:03:11;;;;;;;1999.90;999.90;;;;;;;-7.42;100.00;160433.47;5052022;28;20426;-66
2021/12/26 01:05:40;;;;;;;1999.90;999.90;;;;;;;-6.78;100.00;160603.41;5053797;28;20068;-66
2021/12/26 01:08:10;;;;;;;1999.90;999.90;;;;;;;-6.97;98.51;160551.75;5045436;28;20079;-66
2021/12/26 01:10:54;;;;;;;1999.90;999.90;;;;;;;-6.89;98.40;160573.53;5055290;28;20053;-66
2021/12/26 01:15:49;;;;;;;1999.90;999.90;;;;;;;-6.53;97.17;160668.72;5051446;28;20069;-64
2021/12/26 01:18:17;;;;;;;1999.90;999.90;;;;;;;-6.63;96.83;160641.50;5043755;28;20073;-66
2021/12/26 01:20:51;;;;;;;1999.90;999.90;;;;;;;-6.94;96.18;160561.25;5039808;28;20077;-65
2021/12/26 01:23:20;;;;;;;1999.90;999.90;;;;;;;-7.39;98.35;160440.28;5049073;28;20075;-65
2021/12/26 01:25:47;;;;;;;1999.90;999.90;;;;;;;-7.01;98.35;160540.84;5057861;28;20083;-66
2021/12/26 01:28:15;;;;;;;1999.90;999.90;;;;;;;-7.35;97.55;160451.13;5053283;28;20073;-65
2021/12/26 01:30:42;;;;;;;1999.90;999.90;;;;;;;-7.00;97.49;160543.59;5049895;28;20476;-65
2021/12/26 01:33:11;;;;;;;1999.90;999.90;;;;;;;-6.97;97.21;160553.09;5050275;28;20045;-65
2021/12/26 01:35:39;;;;;;;1999.90;999.90;;;;;;;-6.67;95.86;160630.63;5052679;28;20048;-66
2021/12/26 01:38:13;;;;;;;1999.90;999.90;;;;;;;-6.41;95.33;160701.34;5047475;28;20056;-66
2021/12/26 01:40:47;;;;;;;1999.90;999.90;;;;;;;-6.06;94.17;160792.50;5051445;28;20091;-67
2021/12/26 01:43:16;;;;;;;1999.90;999.90;;;;;;;-5.70;92.47;160889.09;5052046;28;20053;-67
2021/12/26 01:45:43;;;;;;;1999.90;999.90;;;;;;;-5.26;90.52;161003.44;5047655;28;20083;-66
2021/12/26 01:48:10;;;;;;;1999.90;999.90;;;;;;;-5.51;89.30;160939.47;5055057;28;20048;-66
2021/12/26 01:50:37;;;;;;;1999.90;999.90;;;;;;;-5.18;89.36;161025.19;5044454;28;20077;-65
2021/12/26 01:53:05;;;;;;;1999.90;999.90;;;;;;;-5.16;89.26;161030.69;5044366;28;20095;-65
2021/12/26 01:55:39;;;;;;;1999.90;999.90;;;;;;;-5.61;90.82;160912.22;5049709;28;20072;-66
2021/12/26 01:58:09;;;;;;;1999.90;999.90;;;;;;;-5.22;89.15;161015.69;5044740;28;20053;-66
2021/12/26 02:00:38;;;;;;;1999.90;999.90;;;;;;;-5.00;88.06;161072.84;5045864;28;20095;-65
2021/12/26 02:03:05;;;;;;;1999.90;999.90;;;;;;;-5.94;90.07;160825.13;5047087;28;20239;-66
2021/12/26 02:05:32;;;;;;;1999.90;999.90;;;;;;;-6.06;90.14;160793.88;5050066;28;20113;-66
2021/12/26 02:07:58;;;;;;;1999.90;999.90;;;;;;;-5.83;88.97;160853.69;5054426;28;20099;-66
2021/12/26 02:10:25;;;;;;;1999.90;999.90;;;;;;;-5.90;89.40;160834.63;5053141;28;20072;-65
2021/12/26 02:12:52;;;;;;;1999.90;999.90;;;;;;;-5.88;89.11;160840.06;5054235;28;20075;-66
2021/12/26 02:15:18;;;;;;;1999.90;999.90;;;;;;;-6.85;93.64;160584.38;5050013;28;20048;-66
2021/12/26 02:17:45;;;;;;;1999.90;999.90;;;;;;;-5.83;91.13;160853.69;5048390;28;20081;-66
2021/12/26 02:20:45;;;;;;;1999.90;999.90;;;;;;;-5.67;88.00;160897.25;5047614;28;20080;-66
2021/12/26 02:23:14;;;;;;;1999.90;999.90;;;;;;;-5.77;87.65;160868.69;5049592;28;20057;-67
2021/12/26 02:28:14;;;;;;;1999.90;999.90;;;;;;;-5.89;86.57;160837.38;5052006;28;20091;-67
2021/12/26 02:30:41;;;;;;;;;;;;;;;-5.64;86.22;160902.66;5050712;28;20044;-67
2021/12/26 02:33:11;;;;;;;1999.90;999.90;;;;;;;-5.73;85.32;160880.94;5042966;28;19921;-66
2021/12/26 02:35:42;;;;;;;1999.90;999.90;;;;;;;-5.83;84.70;160853.69;5052154;28;20098;-66
2021/12/26 02:38:09;;;;;;;;;;;;;;;-6.14;86.38;160770.75;5051191;28;20045;-66
2021/12/26 02:40:37;;;;;;;1999.90;999.90;;;;;;;-5.84;85.79;160850.97;5051818;28;19967;-67
2021/12/26 02:43:06;;;;;;;1999.90;999.90;;;;;;;-5.75;85.46;160875.44;5045570;28;20094;-67
2021/12/26 02:45:34;;;;;;;1999.90;999.90;;;;;;;-5.82;86.28;160855.03;5058907;28;20081;-66
2021/12/26 02:48:02;;;;;;;1999.90;999.90;;;;;;;-5.56;86.61;160925.81;5050693;28;20342;-66
2021/12/26 02:50:31;;;;;;;1999.90;999.90;;;;;;;-5.85;87.42;160848.22;5047495;28;20138;-66
2021/12/26 02:53:03;;;;;;;1999.90;999.90;;;;;;;-6.06;88.22;160793.88;5050278;28;20068;-65
2021/12/26 02:55:29;;;;;;;1999.90;999.90;;;;;;;-6.29;90.19;160732.63;5048061;28;20060;-65
2021/12/26 02:58:01;;;;;;;1999.90;999.90;;;;;;;-6.02;89.25;160803.38;5049014;28;20080;-66
2021/12/26 03:00:31;;;;;;;1999.90;999.90;;;;;;;-6.10;89.22;160783.00;5041739;28;20080;-65
2021/12/26 03:03:02;;;;;;;1999.90;999.90;;;;;;;-6.20;89.71;160757.13;5050642;28;20448;-66
2021/12/26 03:05:31;;;;;;;1999.90;999.90;;;;;;;-6.08;89.23;160787.06;5042936;28;20053;-65
2021/12/26 03:07:58;;;;;;;1999.90;999.90;;;;;;;-5.99;88.30;160810.22;5054630;28;20077;-66
2021/12/26 03:10:26;;;;;;;1999.90;999.90;;;;;;;-6.21;88.73;160753.03;5050606;28;20071;-66
2021/12/26 03:12:59;;;;;;;1999.90;999.90;;;;;;;-6.24;90.14;160744.88;5047323;28;20570;-65
2021/12/26 03:15:27;;;;;;;1999.90;999.90;;;;;;;-5.75;88.30;160874.09;5041485;28;20081;-66
2021/12/26 03:17:55;;;;;;;1999.90;999.90;;;;;;;-5.51;87.20;160938.06;5051594;28;20122;-67
2021/12/26 03:20:25;;;;;;;1999.90;999.90;;;;;;;-5.52;87.27;160935.38;5044748;28;20107;-66
2021/12/26 03:22:52;;;;;;;1999.90;999.90;;;;;;;-6.13;89.11;160774.81;5044087;28;20076;-66
2021/12/26 03:25:21;;;;;;;1999.90;999.90;;;;;;;-6.53;90.69;160668.72;5050780;28;20053;-66
2021/12/26 03:27:49;;;;;;;1999.90;999.90;;;;;;;-6.17;91.11;160763.94;5042752;28;20041;-66
2021/12/26 03:30:20;;;;;;;1999.90;999.90;;;;;;;-5.74;89.55;160876.84;5048300;28;20045;-67
2021/12/26 03:32:51;;;;;;;1999.90;999.90;;;;;;;-6.75;91.31;160611.56;5046643;28;20044;-65
2021/12/26 03:35:19;;;;;;;1999.90;999.90;;;;;;;-6.62;92.29;160644.25;5048576;28;20049;-65
2021/12/26 03:37:46;;;;;;;1999.90;999.90;;;;;;;-6.96;93.84;160554.47;5043304;28;20045;-66
2021/12/26 03:40:12;;;;;;;1999.90;999.90;;;;;;;-6.80;93.67;160598.00;5052778;28;20077;-66
2021/12/26 03:42:39;;;;;;;1999.90;999.90;;;;;;;-7.12;95.37;160513.66;5048242;28;20115;-66
2021/12/26 03:45:15;;;;;;;1999.90;999.90;;;;;;;-6.84;94.26;160587.09;5042648;28;20455;-66
2021/12/26 03:47:41;;;;;;;1999.90;999.90;;;;;;;-7.26;95.61;160475.63;5046262;28;20054;-67
2021/12/26 03:50:09;;;;;;;1999.90;999.90;;;;;;;-7.11;95.53;160515.06;5038863;28;20057;-67
2021/12/26 03:52:36;;;;;;;1999.90;999.90;;;;;;;-6.82;94.80;160592.53;5051540;28;20089;-66
2021/12/26 03:55:03;;;;;;;1999.90;999.90;;;;;;;-6.82;94.41;160592.53;5050310;28;20061;-66
2021/12/26 03:57:29;;;;;;;1999.90;999.90;;;;;;;-7.41;96.43;160436.22;5041785;28;21379;-65
2021/12/26 03:59:56;;;;;;;1999.90;999.90;;;;;;;-7.49;97.48;160414.44;5040565;28;20419;-65
2021/12/26 04:02:23;;;;;;;1999.90;999.90;;;;;;;-6.67;95.45;160630.63;5052889;28;20052;-65
2021/12/26 04:04:49;;;;;;;1999.90;999.90;;;;;;;-7.26;94.96;160475.63;5046170;28;20045;-65
2021/12/26 04:07:16;;;;;;;1999.90;999.90;;;;;;;-6.86;94.40;160581.69;5043825;28;20080;-66
2021/12/26 04:09:43;;;;;;;1999.90;999.90;;;;;;;-6.60;94.09;160649.66;5051782;28;20076;-66
2021/12/26 04:12:10;;;;;;;1999.90;999.90;;;;;;;-6.80;93.74;160596.59;5035967;28;20069;-65
2021/12/26 04:14:36;;;;;;;1999.90;999.90;;;;;;;-6.58;93.71;160656.47;5042154;28;20120;-66
2021/12/26 04:17:03;;;;;;;1999.90;999.90;;;;;;;-6.49;92.87;160679.59;5043803;28;20085;-67
2021/12/26 04:19:29;;;;;;;1999.90;999.90;;;;;;;-7.49;95.73;160415.84;5056590;28;20098;-66
2021/12/26 04:21:56;;;;;;;1999.90;999.90;;;;;;;-7.43;96.34;160430.75;5045815;28;20073;-66
2021/12/26 04:24:23;;;;;;;1999.90;999.90;;;;;;;-7.37;96.89;160447.03;5048416;28;20091;-66
2021/12/26 04:26:50;;;;;;;1999.90;999.90;;;;;;;-7.32;97.32;160459.31;5039754;28;20083;-66
2021/12/26 04:29:16;;;;;;;1999.90;999.90;;;;;;;-7.73;98.34;160350.59;5037532;28;20537;-66
2021/12/26 04:31:43;;;;;;;1999.90;999.90;;;;;;;-7.39;98.60;160440.28;5045982;28;20077;-66
2021/12/26 04:34:09;;;;;;;1999.90;999.90;;;;;;;-7.31;99.29;160462.00;5052243;28;20341;-66
2021/12/26 04:36:36;;;;;;;1999.90;999.90;;;;;;;-6.91;96.65;160568.06;5046647;28;20422;-65
2021/12/26 04:39:04;;;;;;;1999.90;999.90;;;;;;;-6.87;96.37;160578.94;5043861;28;20080;-66
2021/12/26 04:41:30;;;;;;;1999.90;999.90;;;;;;;-7.52;97.43;160406.28;5049669;28;20450;-66
2021/12/26 04:43:57;;;;;;;1999.90;999.90;;;;;;;-7.11;96.95;160515.06;5039762;28;20045;-66
2021/12/26 04:46:23;;;;;;;1999.90;999.90;;;;;;;-6.70;96.20;160622.47;5050389;28;20040;-65
2021/12/26 04:48:50;;;;;;;1999.90;999.90;;;;;;;-6.70;94.72;160622.47;5042464;28;20132;-66
2021/12/26 04:51:17;;;;;;;1999.90;999.90;;;;;;;-6.45;93.49;160689.09;5045979;28;20106;-66
2021/12/26 04:53:44;;;;;;;1999.90;999.90;;;;;;;-6.30;92.90;160728.56;5043660;28;20045;-66
2021/12/26 04:56:11;;;;;;;1999.90;999.90;;;;;;;-6.23;92.60;160747.63;5053814;28;20524;-65
2021/12/26 04:58:37;;;;;;;1999.90;999.90;;;;;;;-7.71;95.01;160357.38;5048376;28;20491;-65
2021/12/26 05:01:04;;;;;;;1999.90;999.90;;;;;;;-7.74;96.89;160347.84;5046540;28;20102;-65
2021/12/26 05:03:31;;;;;;;1999.90;999.90;;;;;;;-7.80;96.71;160334.28;5054045;28;20052;-65
2021/12/26 05:05:58;;;;;;;1999.90;999.90;;;;;;;-7.61;96.38;160383.19;5046600;28;20106;-65
2021/12/26 05:08:25;;;;;;;1999.90;999.90;;;;;;;-7.26;94.86;160475.63;5038896;28;20218;-65
2021/12/26 05:10:51;;;;;;;1999.90;999.90;;;;;;;-6.88;93.32;160574.88;5048384;28;20068;-65
2021/12/26 05:13:18;;;;;;;1999.90;999.90;;;;;;;-7.91;94.02;160304.38;5041888;28;20081;-66
2021/12/26 05:15:45;;;;;;;1999.90;999.90;;;;;;;-8.29;96.20;160203.88;5046244;28;20073;-65
2021/12/26 05:18:11;;;;;;;1999.90;999.90;;;;;;;-7.96;97.03;160292.16;5055454;28;20055;-65
2021/12/26 05:20:38;;;;;;;1999.90;999.90;;;;;;;-7.20;94.04;160491.94;5046082;28;20072;-65
2021/12/26 05:23:04;;;;;;;1999.90;999.90;;;;;;;-6.83;92.28;160589.84;5041983;28;20056;-67
2021/12/26 05:25:31;;;;;;;1999.90;999.90;;;;;;;-6.93;91.63;160563.97;5052469;28;20461;-66
2021/12/26 05:27:58;;;;;;;1999.90;999.90;;;;;;;-7.69;92.49;160361.47;5050634;28;20400;-66
2021/12/26 05:30:26;;;;;;;1999.90;999.90;;;;;;;-7.24;92.80;160481.03;5046981;28;20090;-66
2021/12/26 05:32:53;;;;;;;1999.90;999.90;;;;;;;-6.61;90.56;160646.94;5046632;28;20045;-66
2021/12/26 05:35:19;;;;;;;1999.90;999.90;;;;;;;-6.72;90.58;160618.38;5050483;28;20465;-66
2021/12/26 05:37:46;;;;;;;1999.90;999.90;;;;;;;-6.85;89.79;160584.38;5047036;28;20053;-66
2021/12/26 05:40:15;;;;;;;1999.90;999.90;;;;;;;-6.53;89.92;160668.72;5061121;28;20247;-66
2021/12/26 05:42:42;;;;;;;1999.90;999.90;;;;;;;-7.13;90.30;160509.56;5052169;28;20377;-66
2021/12/26 05:45:10;;;;;;;1999.90;999.90;;;;;;;-6.73;89.96;160617.03;5044152;28;20071;-66
2021/12/26 05:47:37;;;;;;;1999.90;999.90;;;;;;;-6.22;87.96;160750.34;5046427;28;20280;-66
2021/12/26 05:50:06;;;;;;;1999.90;999.90;;;;;;;-6.23;87.62;160747.63;5048436;28;20049;-66
2021/12/26 05:52:33;;;;;;;1999.90;999.90;;;;;;;-6.33;88.18;160720.41;5047500;28;20089;-66
2021/12/26 05:55:00;;;;;;;1999.90;999.90;;;;;;;-6.08;87.83;160788.41;5046945;28;20053;-66
2021/12/26 05:57:26;;;;;;;1999.90;999.90;;;;;;;-6.11;86.85;160778.91;5054238;28;20090;-66
2021/12/26 05:59:53;;;;;;;1999.90;999.90;;;;;;;-6.03;86.24;160802.03;5042914;28;20069;-66
2021/12/26 06:02:19;;;;;;;1999.90;999.90;;;;;;;-6.09;85.76;160785.72;5059829;28;20077;-66
2021/12/26 06:04:47;;;;;;;1999.90;999.90;;;;;;;-5.97;85.74;160815.63;5042283;28;20105;-66
2021/12/26 06:07:13;;;;;;;1999.90;999.90;;;;;;;-6.00;85.33;160807.47;5048466;28;20092;-65
2021/12/26 06:09:40;;;;;;;1999.90;999.90;;;;;;;-5.99;85.29;160811.53;5047189;28;20112;-66
2021/12/26 06:12:07;;;;;;;1999.90;999.90;;;;;;;-5.99;84.75;160810.22;5051654;28;20060;-66
2021/12/26 06:14:34;;;;;;;1999.90;999.90;;;;;;;-6.02;84.16;160804.72;5044363;28;20433;-66
2021/12/26 06:17:00;;;;;;;1999.90;999.90;;;;;;;-6.16;85.03;160765.28;5041151;28;20138;-66
2021/12/26 06:19:27;;;;;;;1999.90;999.90;;;;;;;-6.08;85.03;160787.06;5057458;28;20051;-66
2021/12/26 06:21:53;;;;;;;1999.90;999.90;;;;;;;-6.00;84.66;160807.47;5047787;28;20078;-66
2021/12/26 06:24:20;;;;;;;1999.90;999.90;;;;;;;-6.02;84.65;160803.38;5050394;28;21004;-66
2021/12/26 06:26:47;;;;;;;1999.90;999.90;;;;;;;-6.33;84.52;160720.41;5053843;28;20622;-65
2021/12/26 06:29:14;;;;;;;1999.90;999.90;;;;;;;-6.82;85.48;160592.53;5045657;28;20465;-66
2021/12/26 06:31:41;;;;;;;1999.90;999.90;;;;;;;-7.79;90.13;160336.97;5047720;28;20103;-66
2021/12/26 06:34:08;;;;;;;1999.90;999.90;;;;;;;-7.54;91.20;160400.88;5046109;28;20053;-66
2021/12/26 06:36:35;;;;;;;1999.90;999.90;;;;;;;-7.22;90.74;160485.13;5047036;28;20114;-66
2021/12/26 06:39:03;;;;;;;1999.90;999.90;;;;;;;-7.50;90.22;160413.09;5056753;28;20111;-65
2021/12/26 06:41:30;;;;;;;1999.90;999.90;;;;;;;-8.37;93.58;160183.44;5054138;28;20507;-65
2021/12/26 06:43:56;;;;;;;1999.90;999.90;;;;;;;-8.86;97.18;160054.56;5039496;28;20350;-66
2021/12/26 06:46:23;;;;;;;1999.90;999.90;;;;;;;-8.06;96.01;160264.97;5039920;28;20380;-66
2021/12/26 06:48:50;;;;;;;1999.90;999.90;;;;;;;-7.65;95.02;160373.69;5060388;28;20088;-66
2021/12/26 06:51:18;;;;;;;1999.90;999.90;;;;;;;-6.85;91.79;160584.38;5046525;28;20037;-66
2021/12/26 06:53:45;;;;;;;1999.90;999.90;;;;;;;-6.49;89.78;160679.59;5043273;28;20073;-66
2021/12/26 06:56:11;;;;;;;1999.90;999.90;;;;;;;-6.70;89.01;160622.47;5043633;28;20126;-66
2021/12/26 06:58:38;;;;;;;1999.90;999.90;;;;;;;-6.69;88.84;160625.19;5048202;28;20256;-66
2021/12/26 07:01:05;;;;;;;1999.90;999.90;;;;;;;-6.94;88.70;160559.91;5043963;28;20088;-65
2021/12/26 07:03:32;;;;;;;1999.90;999.90;;;;;;;-7.06;89.65;160528.63;5053123;28;20053;-65
2021/12/26 07:05:58;;;;;;;1999.90;999.90;;;;;;;-6.93;89.24;160562.63;5048476;28;20045;-66
2021/12/26 07:08:25;;;;;;;1999.90;999.90;;;;;;;-7.19;90.17;160494.66;5045534;28;20044;-66
2021/12/26 07:10:51;;;;;;;1999.90;999.90;;;;;;;-7.14;90.11;160506.91;5057119;28;20388;-65
2021/12/26 07:13:18;;;;;;;1999.90;999.90;;;;;;;-6.94;89.94;160559.91;5047749;28;20111;-65
2021/12/26 07:15:44;;;;;;;1999.90;999.90;;;;;;;-6.65;88.63;160636.09;5043706;28;20307;-65
2021/12/26 07:18:11;;;;;;;1999.90;999.90;;;;;;;-6.69;88.10;160625.19;5050454;28;20373;-65
2021/12/26 07:20:38;;;;;;;1999.90;999.90;;;;;;;-7.26;88.73;160475.63;5048074;28;20134;-65
2021/12/26 07:23:05;;;;;;;1999.90;999.90;;;;;;;-7.68;91.04;160364.16;5047085;28;20096;-66
2021/12/26 07:25:32;;;;;;;1999.90;999.90;;;;;;;-7.54;91.71;160402.22;5049586;28;20458;-65
2021/12/26 07:27:59;;;;;;;1999.90;999.90;;;;;;;-6.92;90.28;160566.72;5048648;28;20049;-65
2021/12/26 07:30:26;;;;;;;1999.90;999.90;;;;;;;-7.39;89.92;160441.63;5040468;28;20461;-65
2021/12/26 07:32:52;;;;;;;1999.90;999.90;;;;;;;-8.23;93.29;160220.16;5046313;28;20334;-65
2021/12/26 07:35:19;;;;;;;1999.90;999.90;;;;;;;-8.05;95.14;160266.31;5054006;28;20051;-65
2021/12/26 07:37:46;;;;;;;1999.90;999.90;;;;;;;-7.15;92.15;160505.50;5046440;28;20500;-65
2021/12/26 07:40:13;;;;;;;1999.90;999.90;;;;;;;-7.27;91.32;160472.91;5052101;28;20501;-65
2021/12/26 07:42:41;;;;;;;1999.90;999.90;;;;;;;-7.98;92.95;160286.72;5043167;28;20145;-65
2021/12/26 07:45:08;;;;;;;1999.90;999.90;;;;;;;-7.43;92.80;160432.13;5047488;28;20044;-65
2021/12/26 07:47:35;;;;;;;1999.90;999.90;;;;;;;-6.67;90.55;160631.97;5053367;28;20049;-66
2021/12/26 07:50:03;;;;;;;1999.90;999.90;;;;;;;-6.40;89.15;160704.06;5052146;28;20559;-66
2021/12/26 07:52:33;;;;;;;1999.90;999.90;;;;;;;-6.08;88.29;160788.41;5039181;28;20053;-66
2021/12/26 07:55:01;;;;;;;1999.90;999.90;;;;;;;-5.88;88.13;160840.06;5044610;28;20061;-66
2021/12/26 07:57:28;;;;;;;1999.90;999.90;;;;;;;-5.70;87.03;160889.09;5042803;28;20098;-66
2021/12/26 07:59:55;;;;;;;1999.90;999.90;;;;;;;-5.54;86.99;160931.28;5041445;28;20046;-66
2021/12/26 08:02:21;;;;;;;1999.90;999.90;;;;;;;-5.46;86.95;160951.72;5048202;28;20091;-66
2021/12/26 08:04:48;;;;;;;1999.90;999.90;;;;;;;-5.43;86.15;160959.88;5047259;28;20060;-66
2021/12/26 08:07:15;;;;;;;1999.90;999.90;;;;;;;-5.62;86.48;160909.50;5044288;28;20045;-66
2021/12/26 08:09:41;;;;;;;1999.90;999.90;;;;;;;-6.10;86.98;160783.00;5050450;28;20122;-66
2021/12/26 08:12:09;;;;;;;1999.90;999.90;;;;;;;-6.61;88.10;160648.31;5050532;28;20047;-65
2021/12/26 08:14:36;;;;;;;1999.90;999.90;;;;;;;-7.30;90.73;160466.06;5044958;28;20061;-65
2021/12/26 08:17:03;;;;;;;1999.90;999.90;;;;;;;-7.21;91.89;160489.19;5047007;28;20492;-66
2021/12/26 08:19:30;;;;;;;1999.90;999.90;;;;;;;-7.41;93.01;160436.22;5038230;28;20052;-65
2021/12/26 08:21:57;;;;;;;1999.90;999.90;;;;;;;-7.04;92.55;160532.69;5041583;28;20503;-65
2021/12/26 08:24:26;;;;;;;1999.90;999.90;;;;;;;-6.64;92.14;160638.78;5041680;28;20088;-66
2021/12/26 08:26:54;;;;;;;1999.90;999.90;;;;;;;-6.43;90.97;160694.53;5048302;28;20102;-66
2021/12/26 08:29:24;;;;;;;1999.90;999.90;;;;;;;-6.25;90.09;160742.13;5045947;28;20456;-66
2021/12/26 08:31:54;;;;;;;1999.90;999.90;;;;;;;-6.52;90.98;160670.06;5043944;28;20434;-65
2021/12/26 08:34:22;;;;;;;1999.90;999.90;;;;;;;-7.28;93.30;160471.56;5042003;28;20071;-66
2021/12/26 08:36:58;;;;;;;1999.90;999.90;;;;;;;-7.20;95.45;160491.94;5046336;28;20357;-66
2021/12/26 08:39:26;;;;;;;1999.90;999.90;;;;;;;-7.63;95.17;160377.75;5043299;28;20045;-66
2021/12/26 08:41:53;;;;;;;1999.90;999.90;;;;;;;-7.70;96.97;160360.06;5042214;28;20135;-65
2021/12/26 08:44:19;;;;;;;1999.90;999.90;;;;;;;-7.40;96.73;160437.53;5048443;28;20048;-66
2021/12/26 08:46:47;;;;;;;1999.90;999.90;;;;;;;-7.68;97.40;160364.16;5042664;28;20426;-65
2021/12/26 08:49:14;;;;;;;1999.90;999.90;;;;;;;-6.90;95.75;160570.78;5049372;28;20081;-65
2021/12/26 08:51:42;;;;;;;1999.90;999.90;;;;;;;-6.77;94.87;160604.81;5048753;28;20342;-66
2021/12/26 08:54:10;;;;;;;1999.90;999.90;;;;;;;-7.28;96.05;160470.16;5036956;28;20112;-66
2021/12/26 08:56:38;;;;;;;1999.90;999.90;;;;;;;-7.04;96.74;160534.09;5040168;28;20041;-66
2021/12/26 08:59:05;;;;;;;1999.90;999.90;;;;;;;-7.28;96.53;160471.56;5044385;28;20060;-66
2021/12/26 09:01:32;;;;;;;1999.90;999.90;;;;;;;-7.35;98.44;160452.50;5045213;28;20450;-66
2021/12/26 09:03:59;;;;;;;1999.90;999.90;;;;;;;-7.61;98.19;160383.19;5052547;28;20044;-66
2021/12/26 09:06:26;;;;;;;1999.90;999.90;;;;;;;-8.51;100.00;160146.84;5049302;28;20131;-66
2021/12/26 09:08:52;;;;;;;1999.90;999.90;;;;;;;-8.54;100.00;160138.72;5046806;28;20045;-65
2021/12/26 09:11:19;;;;;;;1999.90;999.90;;;;;;;-7.64;100.00;160375.03;5046686;28;20076;-66
2021/12/26 09:13:46;;;;;;;1999.90;999.90;;;;;;;-7.32;100.00;160459.31;5045826;28;20076;-66
2021/12/26 09:16:13;;;;;;;1999.90;999.90;;;;;;;-7.71;100.00;160357.38;5047554;28;20408;-66
2021/12/26 09:18:40;;;;;;;1999.90;999.90;;;;;;;-7.60;100.00;160385.91;5047694;28;20053;-66
2021/12/26 09:21:07;;;;;;;1999.90;999.90;;;;;;;-7.69;100.00;160361.47;5049344;28;20088;-66
2021/12/26 09:23:34;;;;;;;1999.90;999.90;;;;;;;-7.80;100.00;160334.28;5047838;28;20098;-66
2021/12/26 09:26:00;;;;;;;1999.90;999.90;;;;;;;-6.81;100.00;160593.91;5056822;28;20044;-66
2021/12/26 09:28:28;;;;;;;1999.90;999.90;;;;;;;-6.73;99.09;160615.63;5034482;28;20056;-66
2021/12/26 09:30:55;;;;;;;1999.90;999.90;;;;;;;-7.15;99.02;160505.50;5045625;28;20075;-65
2021/12/26 09:33:22;;;;;;;1999.90;999.90;;;;;;;-6.39;97.88;160706.75;5051673;28;20048;-65
2021/12/26 09:35:49;;;;;;;1999.90;999.90;;;;;;;-5.85;95.12;160848.22;5041176;28;20099;-67
2021/12/26 09:38:16;;;;;;;1999.90;999.90;;;;;;;-6.58;96.75;160655.09;5051090;28;20103;-66
2021/12/26 09:40:43;;;;;;;1999.90;999.90;;;;;;;-7.19;99.12;160493.28;5058802;28;20049;-66
2021/12/26 09:43:10;;;;;;;1999.90;999.90;;;;;;;-6.45;98.95;160690.44;5054340;28;20260;-65
2021/12/26 09:45:36;;;;;;;1999.90;999.90;;;;;;;-6.97;97.50;160553.09;5048784;28;20057;-66
2021/12/26 09:48:03;;;;;;;1999.90;999.90;;;;;;;-6.96;100.00;160554.47;5050559;28;20430;-66
2021/12/26 09:50:30;;;;;;;1999.90;999.90;;;;;;;-7.12;99.61;160513.66;5050027;28;20080;-65
2021/12/26 09:52:57;;;;;;;1999.90;999.90;;;;;;;-7.25;99.01;160478.31;5046911;28;20053;-66
2021/12/26 09:55:28;;;;;;;1999.90;999.90;;;;;;;-6.64;98.98;160638.78;5046600;28;20049;-66
2021/12/26 09:57:55;;;;;;;1999.90;999.90;;;;;;;-5.95;96.73;160821.06;5043285;28;20049;-66
2021/12/26 10:00:24;;;;;;;1999.90;999.90;;;;;;;-5.63;94.46;160905.41;5040862;28;20142;-67
2021/12/26 10:03:13;;;;;;;1999.90;999.90;;;;;;;-5.09;92.98;161048.34;5072069;28;20053;-67
2021/12/26 10:05:57;;;;;;;1999.90;999.90;;;;;;;-5.35;93.23;160981.63;5037853;28;20045;-67
2021/12/26 10:08:24;;;;;;;1999.90;999.90;;;;;;;-5.26;92.14;161003.44;5047554;28;20088;-67
2021/12/26 10:11:07;;;;;;;1999.90;999.90;;;;;;;-5.24;92.55;161010.25;5045547;28;20440;-67
2021/12/26 10:13:43;;;;;;;1999.90;999.90;;;;;;;-4.41;90.74;161229.53;5045930;28;20091;-67
2021/12/26 10:16:11;;;;;;;1999.90;999.90;;;;;;;-4.42;89.69;161228.16;5036843;28;20056;-67
2021/12/26 10:18:39;;;;;;;1999.90;999.90;;;;;;;-5.23;91.03;161012.94;5042964;28;20092;-67
2021/12/26 10:21:27;;;;;;;1999.90;999.90;;;;;;;-5.17;92.44;161027.94;5044989;28;20041;-67
2021/12/26 10:23:57;;;;;;;1999.90;999.90;;;;;;;-4.67;89.35;161161.41;5040418;28;20456;-67
2021/12/26 10:26:26;;;;;;;1999.90;999.90;;;;;;;-4.66;90.41;161164.16;5048205;28;20057;-67
2021/12/26 10:29:16;;;;;;;1999.90;999.90;;;;;;;-5.04;91.78;161063.34;5042380;28;20045;-67
2021/12/26 10:31:58;;;;;;;1999.90;999.90;;;;;;;-5.10;92.52;161045.66;5038559;28;20045;-67
2021/12/26 10:34:28;;;;;;;1999.90;999.90;;;;;;;-4.04;88.35;161326.28;5045632;28;20115;-67
2021/12/26 10:36:56;;;;;;;1999.90;999.90;;;;;;;-4.38;90.09;161236.34;5039577;28;20091;-66
2021/12/26 10:39:27;;;;;;;1999.90;999.90;;;;;;;-4.23;89.21;161277.19;5035085;28;20443;-67
2021/12/26 10:41:59;;;;;;;1999.90;999.90;;;;;;;-4.66;88.70;161164.16;5044576;28;20084;-67
2021/12/26 10:44:33;;;;;;;1999.90;999.90;;;;;;;-4.63;90.25;161170.94;5042698;28;20072;-67
2021/12/26 10:47:07;;;;;;;1999.90;999.90;;;;;;;-5.10;90.33;161045.66;5046428;28;20048;-67
2021/12/26 10:49:36;;;;;;;1999.90;999.90;;;;;;;-4.84;90.67;161115.09;5046814;28;20048;-66
2021/12/26 10:52:14;;;;;;;1999.90;999.90;;;;;;;-4.80;90.21;161126.00;5046303;28;20426;-66
2021/12/26 10:54:44;;;;;;;1999.90;999.90;;;;;;;-4.75;90.03;161138.25;5041023;28;20060;-67
2021/12/26 10:57:19;;;;;;;1999.90;999.90;;;;;;;-5.33;90.96;160987.09;5040025;28;20045;-65